Time;durP1;ratioP1;P1;durP2;ratioP2;P2;SDS_P1;SDS_P2;PMS_P1;PMS_P2;Temp;Humidity;BMP_temperature;BMP_pressure;BME280_temperature;BME280_humidity;BME280_pressure;Samples;Min_cycle;Max_cycle;Signal;HPM_P1;HPM_P2
2021/12/05 00:19:44;;;;;;;115.28;45.70;;;;;;;0.86;68.23;96582.03;1792693;79;20973;-57
2021/12/05 00:22:01;;;;;;;98.97;42.40;;;;;;;0.84;68.34;96586.26;1789435;80;21514;-57
2021/12/05 00:24:32;;;;;;;93.10;38.42;;;;;;;0.86;68.76;96580.17;1790928;80;22433;-57
2021/12/05 00:27:04;;;;;;;86.92;38.30;;;;;;;0.91;68.63;96586.86;1786090;80;21026;-57
2021/12/05 00:29:48;;;;;;;92.27;38.80;;;;;;;0.96;68.50;96589.59;1792249;79;21165;-57
2021/12/05 00:32:17;;;;;;;62.23;29.75;;;;;;;1.01;68.52;96582.95;1796938;78;21112;-57
2021/12/05 00:35:23;;;;;;;55.43;23.45;;;;;;;1.03;68.95;96582.72;1823922;78;21044;-57
2021/12/05 00:43:37;;;;;;;70.40;31.02;;;;;;;0.98;68.67;96580.80;1806101;78;21047;-57
2021/12/05 00:56:18;;;;;;;61.73;28.85;;;;;;;0.94;69.41;96593.55;1792636;80;20909;-57
2021/12/05 01:04:24;;;;;;;72.62;31.00;;;;;;;0.97;69.95;96603.20;1772178;78;40113;-57
2021/12/05 01:16:45;;;;;;;59.60;27.95;;;;;;;1.07;69.61;96601.15;1792842;80;21502;-57
2021/12/05 01:19:12;;;;;;;61.45;28.38;;;;;;;1.10;69.39;96600.63;1819595;77;20974;-57
2021/12/05 01:21:39;;;;;;;57.58;25.68;;;;;;;1.11;69.15;96611.58;1824179;78;21045;-57
2021/12/05 01:24:18;;;;;;;57.45;25.52;;;;;;;1.06;69.10;96610.22;1791652;80;21466;-57
2021/12/05 01:27:00;;;;;;;56.18;25.55;;;;;;;1.01;69.15;96608.30;1784987;78;21027;-57
2021/12/05 01:39:51;;;;;;;42.58;20.25;;;;;;;1.00;69.43;96609.35;1781047;79;21006;-57
2021/12/05 02:31:03;;;;;;;90.47;46.20;;;;;;;1.00;70.01;96612.55;1792967;79;21009;-57
2021/12/05 02:43:34;;;;;;;71.35;36.90;;;;;;;0.95;71.72;96618.66;1824892;77;21452;-57
2021/12/05 02:45:59;;;;;;;64.15;32.73;;;;;;;0.95;72.40;96619.99;1824328;78;21036;-57
2021/12/05 02:48:25;;;;;;;62.70;30.72;;;;;;;0.95;71.94;96618.66;1822556;77;21539;-57
2021/12/05 02:50:50;;;;;;;60.75;28.95;;;;;;;0.93;74.28;96620.75;1825151;78;20997;-57
2021/12/05 02:53:31;;;;;;;84.17;32.93;;;;;;;0.88;74.01;96611.38;1808671;78;20956;-57
2021/12/05 02:55:46;;;;;;;57.20;25.25;;;;;;;0.82;74.30;96609.19;1788626;80;21008;-57
2021/12/05 02:58:21;;;;;;;45.58;22.58;;;;;;;0.79;75.26;96617.70;1800734;78;21029;-57
2021/12/05 03:01:05;;;;;;;41.42;19.40;;;;;;;0.73;76.37;96616.55;1824676;78;21863;-57
2021/12/05 03:03:25;;;;;;;24.30;14.10;;;;;;;0.70;74.63;96615.73;1797721;78;21479;-57
2021/12/05 03:05:48;;;;;;;30.00;14.13;;;;;;;0.71;73.87;96612.81;1790539;79;21145;-57
2021/12/05 03:08:14;;;;;;;29.50;13.62;;;;;;;0.68;75.15;96602.63;1792549;79;21013;-57
2021/12/05 03:10:40;;;;;;;15.95;8.90;;;;;;;0.62;76.38;96610.84;1766708;80;21061;-57
2021/12/05 03:13:06;;;;;;;16.42;9.35;;;;;;;0.56;73.84;96607.31;1779297;78;21505;-57
2021/12/05 03:15:31;;;;;;;18.92;11.22;;;;;;;0.48;73.78;96610.42;1792723;79;20897;-57
2021/12/05 03:17:57;;;;;;;17.65;9.65;;;;;;;0.45;74.23;96609.06;1783099;79;20876;-57
2021/12/05 03:20:23;;;;;;;22.40;13.48;;;;;;;0.41;74.16;96614.59;1781351;79;20927;-57
2021/12/05 03:22:50;;;;;;;23.30;12.73;;;;;;;0.32;74.31;96612.09;1780918;78;20865;-57
2021/12/05 03:25:16;;;;;;;22.37;12.23;;;;;;;0.27;74.46;96606.72;1789018;80;21655;-57
2021/12/05 03:27:42;;;;;;;25.60;12.18;;;;;;;0.26;74.90;96613.11;1794389;78;21013;-57
2021/12/05 03:30:12;;;;;;;19.80;10.78;;;;;;;0.15;75.40;96602.83;1781512;80;20946;-57
2021/12/05 03:32:38;;;;;;;22.37;11.18;;;;;;;0.09;76.32;96611.03;1800560;77;21121;-57
2021/12/05 03:35:06;;;;;;;18.23;10.53;;;;;;;0.06;77.23;96610.97;1825040;78;21083;-57
2021/12/05 03:37:32;;;;;;;21.68;9.55;;;;;;;0.03;80.12;96610.67;1825374;77;21159;-57
2021/12/05 03:39:58;;;;;;;18.67;9.28;;;;;;;0.02;77.15;96613.86;1824867;78;20870;-57
2021/12/05 03:42:24;;;;;;;17.17;8.30;;;;;;;-0.01;77.86;96610.34;1820700;78;20811;-57
2021/12/05 03:44:50;;;;;;;16.25;7.67;;;;;;;-0.05;79.08;96611.38;1781218;80;20931;-57
2021/12/05 03:47:16;;;;;;;13.70;7.80;;;;;;;-0.08;77.09;96613.20;1783421;79;20854;-57
2021/12/05 03:49:42;;;;;;;13.60;7.75;;;;;;;-0.10;77.72;96607.30;1792603;79;21646;-57
2021/12/05 03:52:11;;;;;;;13.50;8.28;;;;;;;-0.17;77.36;96609.36;1792726;79;21044;-57
2021/12/05 03:54:37;;;;;;;25.10;13.00;;;;;;;-0.15;78.15;96605.91;1792542;80;20984;-57
2021/12/05 03:57:05;;;;;;;32.40;15.53;;;;;;;-0.21;78.60;96608.75;1797744;78;21526;-57
2021/12/05 03:59:31;;;;;;;21.87;11.12;;;;;;;-0.23;79.08;96606.33;1781831;78;21030;-57
2021/12/05 04:01:58;;;;;;;16.73;9.45;;;;;;;-0.28;79.02;96603.59;1781974;80;22165;-57
2021/12/05 04:04:24;;;;;;;13.35;8.25;;;;;;;-0.32;78.83;96601.95;1792292;79;21578;-57
2021/12/05 04:06:50;;;;;;;14.58;7.78;;;;;;;-0.33;80.43;96601.67;1792970;79;20873;-57
2021/12/05 04:09:17;;;;;;;18.55;9.58;;;;;;;-0.30;79.77;96605.17;1769243;80;20866;-57
2021/12/05 04:11:55;;;;;;;15.78;9.48;;;;;;;-0.31;84.24;96600.90;1754179;80;21067;-57
2021/12/05 04:14:14;;;;;;;18.40;9.70;;;;;;;-0.27;84.52;96600.40;1792787;79;21189;-57
2021/12/05 04:16:41;;;;;;;17.40;9.15;;;;;;;-0.25;83.84;96600.45;1796849;78;21482;-56
2021/12/05 04:19:06;;;;;;;38.58;17.42;;;;;;;-0.20;84.11;96599.17;1798492;78;20985;-57
2021/12/05 04:21:35;;;;;;;37.93;16.97;;;;;;;-0.17;83.23;96599.20;1793012;80;21529;-57
2021/12/05 04:24:01;;;;;;;31.10;13.25;;;;;;;-0.12;82.43;96611.27;1792151;79;20977;-57
2021/12/05 04:26:27;;;;;;;22.73;10.50;;;;;;;-0.10;81.57;96603.83;1786222;80;21468;-57
2021/12/05 04:28:53;;;;;;;21.20;10.98;;;;;;;-0.08;83.31;96607.08;1821876;77;21114;-57
2021/12/05 04:31:21;;;;;;;19.70;9.23;;;;;;;-0.08;82.51;96609.21;1825210;78;21006;-57
2021/12/05 04:33:49;;;;;;;17.87;8.33;;;;;;;-0.09;84.93;96612.90;1796567;78;21051;-57
2021/12/05 04:36:14;;;;;;;18.17;9.48;;;;;;;-0.10;85.18;96618.48;1792874;80;21173;-57
2021/12/05 04:38:40;;;;;;;23.20;11.35;;;;;;;-0.10;84.27;96618.48;1792388;79;21003;-57
2021/12/05 04:41:06;;;;;;;22.62;11.08;;;;;;;-0.12;85.56;96614.73;1792806;80;20885;-57
2021/12/05 04:43:37;;;;;;;21.77;10.05;;;;;;;-0.12;85.49;96614.73;1811087;77;21512;-57
2021/12/05 04:46:00;;;;;;;47.05;22.93;;;;;;;-0.14;84.43;96616.04;1824638;78;20993;-57
2021/12/05 04:48:26;;;;;;;26.15;14.20;;;;;;;-0.13;82.53;96625.63;1794371;78;21723;-57
2021/12/05 04:50:52;;;;;;;59.05;23.47;;;;;;;-0.18;82.04;96623.70;1792626;80;21547;-57
2021/12/05 04:53:18;;;;;;;37.70;19.40;;;;;;;-0.23;82.07;96624.16;1792486;79;20925;-57
2021/12/05 04:55:44;;;;;;;34.65;15.70;;;;;;;-0.27;83.87;96629.68;1792743;80;21035;-57
2021/12/05 04:58:10;;;;;;;32.95;17.40;;;;;;;-0.25;85.05;96632.93;1780650;78;20996;-57
2021/12/05 05:00:40;;;;;;;39.03;19.32;;;;;;;-0.25;84.35;96628.94;1766328;81;21647;-57
2021/12/05 05:03:06;;;;;;;38.67;17.48;;;;;;;-0.19;86.14;96639.92;1795650;77;21154;-57
2021/12/05 05:05:32;;;;;;;25.10;14.13;;;;;;;-0.18;84.40;96638.34;1824967;78;21676;-57
2021/12/05 05:07:59;;;;;;;34.73;16.55;;;;;;;-0.15;83.52;96633.88;1800275;78;21016;-57
2021/12/05 05:10:28;;;;;;;32.03;15.43;;;;;;;-0.14;84.61;96640.00;1770343;79;20977;-57
2021/12/05 05:12:54;;;;;;;23.73;13.60;;;;;;;-0.10;84.26;96639.78;1768279;79;21002;-57
2021/12/05 05:15:24;;;;;;;22.93;11.48;;;;;;;-0.11;84.02;96636.31;1780990;80;21573;-57
2021/12/05 05:17:51;;;;;;;20.27;10.88;;;;;;;-0.14;83.42;96632.81;1791760;78;20972;-57
2021/12/05 05:20:23;;;;;;;19.45;11.95;;;;;;;-0.16;85.84;96642.92;1781041;80;21047;-57
2021/12/05 05:23:07;;;;;;;21.30;12.07;;;;;;;-0.18;85.54;96639.67;1781127;80;28091;-57
2021/12/05 05:47:24;;;;;;;24.95;13.00;;;;;;;-0.05;86.78;96655.31;1778745;80;20996;-57
2021/12/05 05:49:10;;;;;;;22.17;10.55;;;;;;;-0.02;86.74;96655.34;1766398;79;20988;-56
2021/12/05 05:51:25;;;;;;;26.07;13.53;;;;;;;-0.02;87.03;96657.48;1789695;78;21001;-56
2021/12/05 05:53:51;;;;;;;17.40;9.60;;;;;;;0.03;85.87;96650.09;1821259;77;21469;-56
2021/12/05 05:56:22;;;;;;;18.07;11.22;;;;;;;0.08;84.52;96658.66;1825291;78;20862;-56
2021/12/05 05:58:53;;;;;;;30.75;15.75;;;;;;;0.04;84.33;96657.03;1802913;78;20981;-56
2021/12/05 06:03:45;;;;;;;20.05;12.37;;;;;;;0.01;84.46;96660.20;1730045;80;20999;-56
2021/12/05 06:06:13;;;;;;;19.87;11.85;;;;;;;-0.03;85.01;96657.20;1781547;79;22232;-57
2021/12/05 06:08:40;;;;;;;27.25;13.55;;;;;;;-0.02;86.50;96664.66;1819107;77;21067;-56
2021/12/05 06:11:13;;;;;;;22.73;12.28;;;;;;;-0.03;87.47;96660.39;1770599;78;21517;-56
2021/12/05 06:13:39;;;;;;;25.17;12.35;;;;;;;0.03;88.16;96670.60;1795804;78;21004;-56
2021/12/05 06:16:07;;;;;;;26.87;14.75;;;;;;;0.05;88.02;96671.16;1792990;80;20869;-56
2021/12/05 06:18:33;;;;;;;31.75;16.35;;;;;;;0.06;88.46;96667.44;1792803;79;21035;-56
2021/12/05 06:20:59;;;;;;;39.35;18.67;;;;;;;0.08;88.05;96674.12;1792561;80;20971;-56
2021/12/05 06:23:25;;;;;;;28.87;15.60;;;;;;;0.07;88.08;96671.18;1815976;77;20886;-56
2021/12/05 06:25:51;;;;;;;27.82;15.72;;;;;;;0.08;88.47;96677.31;1798423;78;21576;-56
2021/12/05 06:28:24;;;;;;;27.37;15.55;;;;;;;0.09;87.70;96674.95;1792647;80;21063;-56
2021/12/05 06:30:54;;;;;;;58.52;31.90;;;;;;;0.08;89.04;96674.65;1791904;79;21953;-56
2021/12/05 06:39:06;;;;;;;84.55;35.35;;;;;;;0.09;86.88;96681.09;1792444;78;21007;-56
2021/12/05 06:46:34;;;;;;;75.40;41.88;;;;;;;0.14;86.33;96692.33;1734674;79;20954;-56
2021/12/05 06:49:00;;;;;;;43.45;26.00;;;;;;;0.14;86.54;96687.00;1823869;77;21020;-56
2021/12/05 06:51:28;;;;;;;29.45;17.32;;;;;;;0.16;86.66;96690.21;1798991;78;20988;-57
2021/12/05 06:53:54;;;;;;;27.07;15.25;;;;;;;0.19;87.44;96695.07;1821940;77;21618;-56
2021/12/05 06:56:20;;;;;;;119.70;63.23;;;;;;;0.20;86.95;96696.68;1825313;78;21483;-56
2021/12/05 06:58:46;;;;;;;136.32;73.30;;;;;;;0.23;85.92;96698.31;1825042;77;21620;-56
2021/12/05 07:01:12;;;;;;;124.60;63.45;;;;;;;0.24;85.92;96704.45;1824964;78;20957;-56
2021/12/05 07:03:42;;;;;;;94.50;53.33;;;;;;;0.25;85.43;96706.86;1823884;77;20870;-57
2021/12/05 07:06:10;;;;;;;;;;;;;;;0.27;86.32;96714.63;1827757;78;20985;-57
2021/12/05 07:08:38;;;;;;;50.08;25.48;;;;;;;0.25;89.32;96711.39;1803708;78;22355;-57
2021/12/05 07:11:19;;;;;;;42.05;24.87;;;;;;;0.32;87.31;96712.55;1819208;78;21848;-57
2021/12/05 07:14:13;;;;;;;35.75;22.73;;;;;;;0.36;86.67;96707.83;1797732;78;21040;-56
2021/12/05 07:16:28;;;;;;;41.08;27.77;;;;;;;0.36;86.67;96713.69;1789551;80;21048;-57
2021/12/05 07:21:39;;;;;;;49.80;26.10;;;;;;;0.42;87.41;96725.48;1792723;79;21084;-56
2021/12/05 07:26:51;;;;;;;39.08;21.30;;;;;;;0.46;88.12;96728.47;1786157;80;21568;-57
2021/12/05 07:42:42;;;;;;;65.45;36.28;;;;;;;0.61;88.12;96727.34;1788464;80;20994;-57
2021/12/05 07:45:14;;;;;;;63.52;34.30;;;;;;;0.68;87.34;96734.61;1788661;80;21044;-57
2021/12/05 07:47:44;;;;;;;74.70;38.35;;;;;;;0.73;87.05;96726.69;1767428;80;21056;-57
2021/12/05 07:50:10;;;;;;;67.25;36.00;;;;;;;0.79;86.95;96732.37;1744415;81;21051;-57
2021/12/05 07:52:40;;;;;;;89.37;45.92;;;;;;;0.88;86.49;96727.41;1770603;80;21128;-57
2021/12/05 07:55:43;;;;;;;109.42;53.08;;;;;;;0.93;86.92;96720.78;1788300;80;21001;-57
2021/12/05 07:58:06;;;;;;;117.77;56.30;;;;;;;0.96;87.15;96730.97;1755200;80;21154;-57
2021/12/05 08:00:28;;;;;;;135.97;60.45;;;;;;;1.00;86.69;96725.39;1734645;82;21553;-57
2021/12/05 08:16:30;;;;;;;92.10;45.05;;;;;;;1.25;85.91;96740.88;1740816;82;20975;-57
2021/12/05 08:18:56;;;;;;;84.55;43.87;;;;;;;1.33;86.05;96736.95;1745120;81;21009;-58
2021/12/05 08:21:22;;;;;;;90.05;46.08;;;;;;;1.39;85.82;96743.44;1746688;82;21673;-58
2021/12/05 08:23:50;;;;;;;108.50;49.40;;;;;;;1.49;85.51;96747.27;1741338;81;20887;-57
2021/12/05 08:26:19;;;;;;;66.72;35.70;;;;;;;1.57;85.08;96750.28;1772886;80;21731;-57
2021/12/05 08:31:36;;;;;;;59.63;32.67;;;;;;;1.67;84.49;96756.23;1740963;82;21595;-57
2021/12/05 08:41:57;;;;;;;63.15;35.85;;;;;;;2.01;84.27;96766.68;1788401;80;21002;-57
2021/12/05 09:08:49;;;;;;;61.33;29.82;;;;;;;2.30;82.74;96769.82;1750052;80;21018;-57
2021/12/05 09:22:32;;;;;;;35.35;20.35;;;;;;;2.53;82.72;96772.13;1784239;80;21590;-57
2021/12/05 09:24:43;;;;;;;30.40;16.20;;;;;;;2.58;82.57;96778.05;1750361;81;21052;-57
2021/12/05 09:51:32;;;;;;;25.60;15.08;;;;;;;2.80;82.48;96771.47;1743466;82;21068;-57
2021/12/05 10:07:37;;;;;;;155.82;79.97;;;;;;;2.76;82.36;96798.48;1746936;81;21496;-57
2021/12/05 10:15:11;;;;;;;329.77;217.30;;;;;;;2.83;82.44;96788.89;1747095;82;20996;-58
2021/12/05 10:17:47;;;;;;;178.90;105.77;;;;;;;2.82;82.50;96793.97;1742166;82;21538;-57
2021/12/05 10:34:45;;;;;;;173.80;62.73;;;;;;;2.93;82.43;96784.92;1740963;82;20961;-57
2021/12/05 10:37:20;;;;;;;740.77;316.35;;;;;;;3.02;82.44;96789.24;1736135;82;21017;-57
2021/12/05 10:39:46;;;;;;;359.25;133.50;;;;;;;3.06;82.26;96788.98;1741187;82;22375;-57
2021/12/05 10:42:40;;;;;;;351.67;131.52;;;;;;;3.09;82.19;96797.31;1740822;82;21045;-57
2021/12/05 10:45:21;;;;;;;223.82;90.57;;;;;;;3.09;82.07;96794.63;1741119;80;21069;-57
2021/12/05 10:47:51;;;;;;;197.90;79.77;;;;;;;3.07;83.02;96806.64;1709280;82;21013;-57
2021/12/05 10:50:42;;;;;;;122.15;55.58;;;;;;;3.03;82.16;96817.08;1752263;80;21096;-57
2021/12/05 10:53:41;;;;;;;95.30;40.83;;;;;;;3.04;82.07;96809.85;1750362;81;21297;-57
2021/12/05 10:56:14;;;;;;;;;;;;;;;3.07;81.60;96807.45;1754830;81;21008;-57
2021/12/05 10:59:09;;;;;;;121.25;46.92;;;;;;;2.99;81.30;96816.00;1750087;81;20177;-57
2021/12/05 11:01:46;;;;;;;55.63;25.50;;;;;;;3.02;81.50;96813.33;1752114;80;21084;-58
2021/12/05 11:04:29;;;;;;;46.40;22.50;;;;;;;3.07;81.44;96812.00;1767007;79;20976;-58
2021/12/05 11:07:07;;;;;;;54.42;25.10;;;;;;;3.15;81.02;96800.80;1722938;81;21562;-58
2021/12/05 11:09:36;;;;;;;37.25;17.77;;;;;;;3.15;80.22;96802.13;1754921;81;21040;-57
2021/12/05 11:12:17;;;;;;;;;;;;;;;3.14;80.69;96799.72;1767206;81;21116;-58
2021/12/05 11:14:46;;;;;;;27.77;18.27;;;;;;;3.17;80.10;96797.88;1752311;81;20301;-58
2021/12/05 11:17:27;;;;;;;31.23;19.45;;;;;;;3.16;80.50;96793.56;1750064;81;21087;-57
2021/12/05 11:20:21;;;;;;;28.05;16.35;;;;;;;3.21;80.57;96801.63;1752294;81;21719;-58
2021/12/05 11:22:48;;;;;;;27.70;17.50;;;;;;;3.23;80.53;96808.33;1751146;81;21071;-58
2021/12/05 11:25:20;;;;;;;25.68;16.57;;;;;;;3.27;80.55;96810.77;1736595;82;21066;-57
2021/12/05 11:27:56;;;;;;;68.78;49.00;;;;;;;3.29;80.18;96813.98;1753126;79;20996;-58
2021/12/05 11:30:33;;;;;;;25.62;14.85;;;;;;;3.20;79.22;96814.21;1766150;81;21518;-57
2021/12/05 11:33:07;;;;;;;31.60;12.43;;;;;;;3.14;79.06;96809.89;1759406;81;21537;-58
2021/12/05 11:35:53;;;;;;;29.98;16.85;;;;;;;3.11;79.14;96816.58;1751015;81;21008;-57
2021/12/05 11:38:22;;;;;;;57.70;26.80;;;;;;;3.06;79.50;96817.89;1751982;81;21040;-58
2021/12/05 11:41:14;;;;;;;27.93;16.17;;;;;;;3.05;79.22;96820.30;1752385;81;21075;-58
2021/12/05 11:43:53;;;;;;;79.95;35.88;;;;;;;3.05;79.03;96823.50;1766330;79;21537;-58
2021/12/05 11:46:27;;;;;;;81.22;35.92;;;;;;;3.00;79.52;96830.19;1769377;81;22344;-58
2021/12/05 11:49:04;;;;;;;55.48;28.83;;;;;;;3.00;79.67;96823.50;1741214;80;22091;-57
2021/12/05 11:51:34;;;;;;;96.17;43.52;;;;;;;3.01;79.13;96825.10;1738719;82;22109;-58
2021/12/05 11:54:14;;;;;;;70.10;35.03;;;;;;;2.97;79.22;96838.72;1738416;81;21004;-58
2021/12/05 11:56:46;;;;;;;125.15;50.12;;;;;;;2.96;78.81;96848.62;1738742;81;21004;-58
2021/12/05 11:59:29;;;;;;;52.33;26.02;;;;;;;2.88;79.04;96857.66;1749692;81;21026;-58
2021/12/05 12:02:13;;;;;;;113.68;46.65;;;;;;;2.84;79.11;96865.41;1751296;81;21545;-57
2021/12/05 12:04:45;;;;;;;94.35;41.30;;;;;;;2.85;79.35;96869.70;1713094;81;21004;-58
2021/12/05 12:07:37;;;;;;;63.40;33.73;;;;;;;2.84;79.17;96866.75;1756507;81;21091;-57
2021/12/05 12:10:23;;;;;;;90.60;40.43;;;;;;;2.80;79.31;96873.66;1762961;80;21202;-57
2021/12/05 12:12:59;;;;;;;60.52;29.67;;;;;;;2.79;79.39;96869.38;1747529;81;22459;-57
2021/12/05 12:15:26;;;;;;;100.90;44.35;;;;;;;2.78;79.36;96869.91;1725481;83;21027;-58
2021/12/05 12:17:55;;;;;;;49.40;23.27;;;;;;;2.77;79.50;96867.50;1732601;81;21106;-57
2021/12/05 12:20:22;;;;;;;;;;;;;;;2.77;79.47;96867.50;1739949;82;21020;-57
2021/12/05 12:22:50;;;;;;;42.33;22.95;;;;;;;2.76;79.56;96861.88;1749462;79;20150;-57
2021/12/05 12:25:21;;;;;;;38.15;21.05;;;;;;;2.75;79.52;96855.73;1751937;81;21606;-58
2021/12/05 12:27:47;;;;;;;37.08;23.65;;;;;;;2.74;79.51;96852.78;1737710;81;21505;-58
2021/12/05 12:30:15;;;;;;;54.20;23.73;;;;;;;2.79;79.55;96849.31;1737452;82;21007;-57
2021/12/05 12:32:46;;;;;;;57.38;27.30;;;;;;;2.82;79.48;96841.59;1740950;81;21052;-58
2021/12/05 12:35:17;;;;;;;37.67;18.87;;;;;;;2.90;79.28;96836.80;1739270;82;21027;-58
2021/12/05 12:38:09;;;;;;;34.18;16.25;;;;;;;2.86;79.41;96844.55;1741021;81;21030;-58
2021/12/05 12:40:43;;;;;;;57.20;23.70;;;;;;;2.86;79.51;96843.21;1752184;81;21004;-58
2021/12/05 12:43:30;;;;;;;41.23;20.70;;;;;;;2.88;79.54;96841.61;1751929;81;21041;-57
2021/12/05 12:45:56;;;;;;;197.35;76.55;;;;;;;2.90;79.60;96828.77;1752271;80;21020;-57
2021/12/05 12:48:26;;;;;;;89.55;38.53;;;;;;;2.92;79.47;96833.35;1764225;79;20991;-57
2021/12/05 12:50:52;;;;;;;59.45;30.08;;;;;;;2.96;79.27;96824.53;1740575;81;21206;-57
2021/12/05 12:53:29;;;;;;;78.47;37.88;;;;;;;3.01;79.38;96829.12;1768754;79;20865;-57
2021/12/05 12:56:11;;;;;;;88.45;40.88;;;;;;;3.06;79.34;96823.23;1769726;79;21087;-57
2021/12/05 12:59:00;;;;;;;93.67;45.03;;;;;;;3.09;79.16;96825.95;1752782;81;21027;-57
2021/12/05 13:05:04;;;;;;;;;;;;;;;3.09;79.58;96831.30;1754589;81;21127;-57
2021/12/05 13:10:10;;;;;;;84.35;35.00;;;;;;;3.09;79.37;96825.41;1757561;81;21611;-57
2021/12/05 13:12:51;;;;;;;85.65;41.05;;;;;;;3.05;79.32;96824.31;1767511;79;21782;-57
2021/12/05 13:15:39;;;;;;;56.37;29.18;;;;;;;3.06;79.34;96818.42;1769548;81;21043;-57
2021/12/05 13:18:18;;;;;;;115.62;45.35;;;;;;;3.02;79.10;96816.81;1743873;81;21167;-58
2021/12/05 13:20:54;;;;;;;89.97;38.10;;;;;;;3.03;79.11;96832.33;1752212;81;21086;-58
2021/12/05 13:23:27;;;;;;;91.97;42.38;;;;;;;2.95;79.40;96824.80;1749929;81;21494;-57
2021/12/05 13:26:14;;;;;;;87.67;40.78;;;;;;;2.93;79.48;96824.26;1740991;81;21081;-57
2021/12/05 13:28:53;;;;;;;56.73;29.63;;;;;;;2.95;79.58;96830.95;1748212;81;21035;-57
2021/12/05 13:31:35;;;;;;;50.20;25.17;;;;;;;2.97;79.50;96835.50;1752133;80;21538;-57
2021/12/05 13:34:32;;;;;;;55.10;29.27;;;;;;;2.93;79.46;96839.78;1743705;81;21011;-58
2021/12/05 13:37:13;;;;;;;67.97;34.10;;;;;;;2.94;79.60;96834.70;1739601;81;21053;-57
2021/12/05 13:39:55;;;;;;;63.30;31.97;;;;;;;2.99;79.56;96836.58;1751985;81;21071;-58
2021/12/05 13:42:39;;;;;;;45.12;25.02;;;;;;;3.01;79.48;96831.80;1751905;81;21008;-57
2021/12/05 13:45:29;;;;;;;48.10;24.32;;;;;;;3.00;79.60;96830.19;1752133;81;21560;-58
2021/12/05 13:48:00;;;;;;;108.32;52.13;;;;;;;2.96;79.51;96827.73;1751705;81;21064;-57
2021/12/05 13:50:38;;;;;;;85.05;46.80;;;;;;;2.94;79.62;96831.22;1752287;81;21092;-57
2021/12/05 13:53:10;;;;;;;62.75;32.03;;;;;;;2.96;79.60;96839.78;1751843;81;21028;-57
2021/12/05 13:55:45;;;;;;;59.23;31.25;;;;;;;2.96;79.55;96847.28;1752272;81;21028;-57
2021/12/05 13:58:45;;;;;;;41.48;20.80;;;;;;;2.92;79.54;96847.53;1751835;81;21560;-57
2021/12/05 14:01:31;;;;;;;60.10;29.48;;;;;;;2.88;79.58;96841.61;1750814;81;21060;-57
2021/12/05 14:04:11;;;;;;;47.17;23.52;;;;;;;2.76;79.71;96845.30;1765157;79;21016;-58
2021/12/05 14:06:55;;;;;;;72.80;34.20;;;;;;;2.74;79.85;96853.31;1753799;80;21025;-57
2021/12/05 14:09:25;;;;;;;59.45;30.27;;;;;;;2.68;79.92;96859.16;1743285;81;21028;-57
2021/12/05 14:12:08;;;;;;;100.60;40.60;;;;;;;2.72;80.03;96848.73;1714653;81;21566;-57
2021/12/05 14:14:48;;;;;;;86.10;40.95;;;;;;;2.72;79.92;96851.41;1751943;81;21008;-57
2021/12/05 14:17:19;;;;;;;100.33;51.33;;;;;;;2.64;80.14;96859.38;1752780;81;21016;-57
2021/12/05 14:19:49;;;;;;;155.90;76.33;;;;;;;2.62;80.73;96857.50;1769926;81;21040;-57
2021/12/05 14:22:17;;;;;;;139.50;68.55;;;;;;;2.64;80.58;96856.70;1763895;81;21012;-57
2021/12/05 14:24:46;;;;;;;241.73;106.17;;;;;;;2.69;80.53;96866.64;1747653;81;22377;-57
2021/12/05 14:27:16;;;;;;;176.37;83.00;;;;;;;2.69;81.20;96866.64;1741315;81;21020;-58
2021/12/05 14:29:43;;;;;;;259.20;126.53;;;;;;;2.68;81.51;96867.71;1752492;81;21036;-57
2021/12/05 14:32:21;;;;;;;77.17;41.75;;;;;;;2.65;81.50;96873.55;1755535;81;21032;-57
2021/12/05 14:34:45;;;;;;;51.33;29.77;;;;;;;2.63;80.87;96877.02;1769386;81;21028;-57
2021/12/05 14:37:19;;;;;;;59.13;31.68;;;;;;;2.53;81.02;96882.57;1768028;81;21716;-57
2021/12/05 14:39:49;;;;;;;52.10;27.02;;;;;;;2.49;81.12;96883.35;1737355;82;21023;-58
2021/12/05 14:42:18;;;;;;;43.25;21.87;;;;;;;2.48;81.25;96889.77;1739426;81;21470;-57
2021/12/05 14:44:47;;;;;;;;;;;;;;;2.48;81.28;96899.93;1754953;81;21021;-57
2021/12/05 14:47:17;;;;;;;108.52;44.23;;;;;;;2.48;81.33;96907.15;1751706;81;20179;-58
2021/12/05 14:49:47;;;;;;;184.72;79.07;;;;;;;2.52;81.31;96905.56;1738306;82;21132;-57
2021/12/05 14:52:17;;;;;;;224.80;100.07;;;;;;;2.56;81.33;96913.34;1740516;81;21003;-57
2021/12/05 14:54:43;;;;;;;242.18;103.40;;;;;;;2.58;81.28;96911.23;1751391;81;21028;-58
2021/12/05 14:57:15;;;;;;;414.63;152.90;;;;;;;2.60;81.27;96912.31;1752191;81;21129;-58
2021/12/05 14:59:43;;;;;;;486.17;202.38;;;;;;;2.60;81.19;96913.66;1769817;81;20980;-58
2021/12/05 15:02:09;;;;;;;278.37;122.72;;;;;;;2.62;81.25;96919.55;1762155;81;21387;-58
2021/12/05 15:04:40;;;;;;;121.07;55.95;;;;;;;2.60;82.53;96919.00;1769473;79;21704;-57
2021/12/05 15:07:06;;;;;;;72.95;39.27;;;;;;;2.58;82.57;96913.91;1748953;80;21029;-57
2021/12/05 15:09:39;;;;;;;124.97;57.05;;;;;;;2.53;83.73;96922.69;1765811;79;20873;-58
2021/12/05 15:12:14;;;;;;;126.07;57.25;;;;;;;2.48;83.36;96926.67;1749864;81;21011;-58
2021/12/05 15:14:43;;;;;;;126.00;58.73;;;;;;;2.45;82.98;96933.05;1709095;83;21906;-58
2021/12/05 15:17:14;;;;;;;133.18;63.78;;;;;;;2.44;82.73;96930.90;1712814;81;20994;-57
2021/12/05 15:19:43;;;;;;;85.25;44.98;;;;;;;2.44;83.32;96941.59;1739327;82;21026;-57
2021/12/05 15:22:09;;;;;;;;;;;;;;;2.38;86.26;96938.59;1744790;81;21010;-57
2021/12/05 15:24:35;;;;;;;59.18;28.40;;;;;;;2.35;85.66;96941.78;1729417;82;20952;-58
2021/12/05 15:27:03;;;;;;;60.78;27.30;;;;;;;2.34;85.32;96947.38;1740743;81;21170;-58
2021/12/05 15:29:29;;;;;;;90.60;38.48;;;;;;;2.28;84.19;96942.51;1736038;82;21144;-57
2021/12/05 15:31:55;;;;;;;115.17;48.05;;;;;;;2.24;84.04;96944.89;1737139;81;20935;-57
2021/12/05 15:34:27;;;;;;;135.32;50.40;;;;;;;2.21;83.54;96948.58;1752243;81;20941;-57
2021/12/05 15:36:53;;;;;;;136.45;49.33;;;;;;;2.13;83.79;96953.04;1752268;81;21585;-57
2021/12/05 15:39:23;;;;;;;184.55;73.70;;;;;;;2.08;83.80;96958.34;1751344;81;21511;-57
2021/12/05 15:41:51;;;;;;;157.65;65.70;;;;;;;2.08;83.81;96955.67;1752698;81;21000;-57
2021/12/05 15:44:32;;;;;;;427.78;145.85;;;;;;;2.11;83.84;96959.17;1748547;81;21068;-57
2021/12/05 15:47:09;;;;;;;175.80;78.57;;;;;;;2.09;83.77;96957.28;1753984;81;21036;-58
2021/12/05 15:50:04;;;;;;;157.67;76.00;;;;;;;2.12;83.77;96956.77;1769537;79;21514;-57
2021/12/05 15:52:42;;;;;;;169.93;74.87;;;;;;;2.11;83.69;96957.30;1760151;79;21635;-57
2021/12/05 15:55:14;;;;;;;103.42;45.33;;;;;;;2.11;85.21;96953.83;1770009;81;28261;-57
2021/12/05 15:57:42;;;;;;;147.70;57.23;;;;;;;2.09;85.64;96953.28;1761564;80;21606;-57
2021/12/05 16:00:20;;;;;;;119.13;55.38;;;;;;;2.07;85.52;96948.72;1752323;81;21428;-58
2021/12/05 16:02:49;;;;;;;155.05;66.82;;;;;;;2.05;86.97;96952.15;1745239;81;21067;-57
2021/12/05 16:05:21;;;;;;;164.18;63.23;;;;;;;2.03;85.30;96950.27;1739038;82;22211;-57
2021/12/05 16:07:48;;;;;;;119.17;53.00;;;;;;;2.01;84.78;96959.06;1744448;81;21004;-58
2021/12/05 16:10:19;;;;;;;77.05;38.55;;;;;;;1.95;84.44;96952.84;1731847;81;21038;-58
2021/12/05 16:12:46;;;;;;;98.97;46.65;;;;;;;1.93;84.73;96952.30;1723102;81;21577;-58
2021/12/05 16:15:13;;;;;;;125.05;55.40;;;;;;;1.94;84.45;96950.70;1737328;82;21674;-57
2021/12/05 16:17:40;;;;;;;162.20;74.40;;;;;;;1.94;85.84;96948.03;1744044;80;21442;-58
2021/12/05 16:20:16;;;;;;;197.87;91.55;;;;;;;1.94;86.86;96951.23;1752166;81;21087;-57
2021/12/05 16:23:11;;;;;;;264.95;135.75;;;;;;;1.94;85.99;96950.70;1745054;81;21026;-58
2021/12/05 16:25:49;;;;;;;285.30;144.93;;;;;;;1.92;86.73;96946.15;1738384;82;21008;-57
2021/12/05 16:28:15;;;;;;;329.43;150.75;;;;;;;1.91;86.11;96943.73;1745930;81;21000;-57
2021/12/05 16:30:46;;;;;;;324.58;133.55;;;;;;;1.91;85.42;96948.55;1752341;81;21862;-57
2021/12/05 16:33:14;;;;;;;155.32;70.70;;;;;;;1.93;85.28;96956.30;1759153;79;21086;-57
2021/12/05 16:35:49;;;;;;;167.98;73.47;;;;;;;1.87;85.16;96953.29;1769753;81;20973;-57
2021/12/05 16:38:23;;;;;;;139.92;63.10;;;;;;;1.79;85.18;96957.73;1755415;81;21012;-57
2021/12/05 16:40:55;;;;;;;160.50;78.35;;;;;;;1.72;84.94;96969.16;1751099;81;21027;-58